Kenn, Washington
Current Conditions -  °F | °C
As of 7:53 PM on Tuesday 21 Oct 2014 (Local Time) from KPSC Reporting Station
Clear Clear  
Wind Chill: 58°   Ceiling: Unl
Heat Index: 58°   Visibility: 10mi
Dew Point: 46°   Wind: 6mph
Humidity: 65%   Direction: 160°SSE
Pressure: 29.95"   Gusts: NA
Location:  46.2117°N, 119.173°W
Report Text: KPSC 220253Z 16005KT 10SM CLR 14/08 A2995 RMK AO2 SLP143 T01440078 56001
Loading
Personal Weather Stations






























Interactive Weather Map
Tropical Storm Tracking
New forecast layout! Learn more

10-Day Weather Forecast

Advertisements
Track Severe Weather on mobile